HKJKHKEL

Guest
Details From HKJK - Nairobi Jomo Kanyatta Intl
To HKEL - Eldoret Intl
Flight Number -
Tags Generated
Created
Modified
Stats Distance 145 nm / 269 km
Max Altitude 0 ft / 0 m
Waypoints 2
Social Downloads 1
Likes 0
Share VATSIM

Download

Looking for another format? Having issues loading an existing format? Contact us
Advertisement - Login to hide

Notes

Generated

Route

HKJK HKEL

ID Type Via Altitude Latitude Longitude Leg Dist Tot Dist Heading (true) Name
O HKJK APT - 0 ft / 0 m -1.32774˚ 36.91612˚ - 0 nm - -
O HKEL APT - 0 ft / 0 m 0.40091˚ 35.22129˚ 145 nm 145 nm 316° / 316° -

Altitude Profile

Advertisement - Login to hide

HKJK

Details ICAO HKJK (NBO)
Name Nairobi Jomo Kanyatta Intl
Region Kenya
Timezone Africa/Nairobi (UTC+3.0)
Stats Elevation 5,330 ft / 1,625 m (AMSL)
Location -1.317073° 36.930757°
Runways 1
Magnetic Variation 0.591° E

METAR

HKJK 240400Z VRB02KT 9999 FEW018 15/14 Q1023

Decode

TAF

TAF HKJK 232300Z 2400/2506 32005KT 9999 FEW024 BKN080 TEMPO 2400/2406 18005KT -RA FEW004 BKN015 BKN080 BECMG 2408/2411 16010KT BKN026 TEMPO 2412/2418 -RA FEW023CB SCT024 BKN080 BECMG 2420/2423 06005KT SCT024 BKN070 TEMPO 2500/2506 18005KT -RA FEW005 BKN016 BKN080

Decode

Departure Runways

ID Width Length Bearing (true) Bearing (mag) Surface Threshold Offset Overrun Length
06 148 ft / 45 m 13,215 ft / 4,028 m 53.90° 53.31° Asphalt 0 ft / 0 m 194 ft / 59 m
24 148 ft / 45 m 13,215 ft / 4,028 m 233.90° 233.31° Asphalt 0 ft / 0 m 197 ft / 60 m

HKEL

Details ICAO HKEL (EDL)
Name ELDORET INTL
Region Kenya
Timezone Africa/Nairobi (UTC+3.0)
Stats Elevation 6,941 ft / 2,116 m (AMSL)
Location 0.404011° 35.236706°
Runways 1
Magnetic Variation 1.318° E

METAR

HKEL 240400Z 15005KT 9999 FEW018CB BKN080 15/13 Q1025

Decode

TAF

TAF TAF HKEL 232300Z 2400/2424 14005KT 9999 FEW018CB BKN080 BECMG 2408/2411 22010KT FEW021CB SCT022 BKN080 TEMPO 2412/2418 VRB10KT -TSRA FEW018CB SCT019 BKN080 BECMG 2420/2423 14005KT FEW019CB BKN080

Decode

Destination Runways

ID Width Length Bearing (true) Bearing (mag) Surface Threshold Offset Overrun Length
08 148 ft / 45 m 11,473 ft / 3,497 m 78.64° 77.32° Asphalt 0 ft / 0 m 0 ft / 0 m
26 148 ft / 45 m 11,473 ft / 3,497 m 258.64° 257.32° Asphalt 0 ft / 0 m 0 ft / 0 m

Popular Alternatives